Time;durP1;ratioP1;P1;durP2;ratioP2;P2;SDS_P1;SDS_P2;PMS_P1;PMS_P2;Temp;Humidity;BMP_temperature;BMP_pressure;BME280_temperature;BME280_humidity;BME280_pressure;Samples;Min_cycle;Max_cycle;Signal;HPM_P1;HPM_P2
2023/01/04 00:02:21;;;;;;;5.42;2.95;;;;;;;2.22;100.00;100247.47;1753395;81;21010;-76
2023/01/04 00:04:48;;;;;;;5.60;3.12;;;;;;;2.25;100.00;100252.94;1737443;81;21040;-75
2023/01/04 00:07:15;;;;;;;5.97;3.27;;;;;;;2.24;100.00;100248.59;1755177;81;21022;-75
2023/01/04 00:09:43;;;;;;;6.75;3.05;;;;;;;2.18;100.00;100261.50;1755816;81;20998;-76
2023/01/04 00:12:10;;;;;;;4.83;2.70;;;;;;;2.15;100.00;100264.09;1760640;81;21000;-76
2023/01/04 00:14:37;;;;;;;4.87;2.90;;;;;;;2.16;100.00;100259.01;1754980;81;21407;-75
2023/01/04 00:17:04;;;;;;;6.92;3.08;;;;;;;2.14;100.00;100254.37;1761452;81;21073;-76
2023/01/04 00:19:33;;;;;;;4.15;3.00;;;;;;;2.09;100.00;100259.52;1753607;80;20999;-75
2023/01/04 00:22:00;;;;;;;5.22;2.67;;;;;;;2.09;100.00;100264.08;1754052;81;21019;-75
2023/01/04 00:24:28;;;;;;;6.83;2.90;;;;;;;2.11;100.00;100267.37;1756008;81;21680;-75
2023/01/04 00:26:55;;;;;;;5.70;3.30;;;;;;;2.11;100.00;100265.52;1751992;81;21562;-76
2023/01/04 00:29:23;;;;;;;5.30;3.00;;;;;;;2.07;100.00;100268.30;1756266;81;21597;-76
2023/01/04 00:31:50;;;;;;;6.90;2.75;;;;;;;1.99;100.00;100263.11;1733716;81;21078;-76
2023/01/04 00:34:17;;;;;;;5.10;2.70;;;;;;;1.99;100.00;100267.97;1755216;81;20979;-76
2023/01/04 00:36:44;;;;;;;6.53;2.98;;;;;;;2.00;100.00;100270.98;1755878;80;21142;-76
2023/01/04 00:39:14;;;;;;;5.58;2.65;;;;;;;1.99;100.00;100269.83;1753436;81;21007;-75
2023/01/04 00:41:50;;;;;;;5.58;2.85;;;;;;;1.91;100.00;100268.15;1754324;80;21589;-75
2023/01/04 00:44:20;;;;;;;5.92;2.60;;;;;;;1.88;100.00;100273.93;1756302;81;20979;-75
2023/01/04 00:46:46;;;;;;;3.52;2.35;;;;;;;1.88;100.00;100267.22;1754300;81;21035;-76
2023/01/04 00:49:13;;;;;;;5.67;2.92;;;;;;;1.87;100.00;100274.98;1723423;82;21810;-77
2023/01/04 00:51:41;;;;;;;4.87;2.52;;;;;;;1.80;100.00;100274.14;1756422;81;21042;-76
2023/01/04 00:54:11;;;;;;;5.95;2.75;;;;;;;1.77;100.00;100278.54;1752659;81;21010;-76
2023/01/04 00:56:38;;;;;;;6.42;2.58;;;;;;;1.78;100.00;100282.05;1750907;81;21101;-76
2023/01/04 00:59:06;;;;;;;4.92;2.42;;;;;;;1.75;100.00;100273.06;1751608;81;21015;-76
2023/01/04 01:01:33;;;;;;;5.87;3.17;;;;;;;1.68;100.00;100273.05;1751190;80;21082;-76
2023/01/04 01:04:02;;;;;;;6.28;2.55;;;;;;;1.63;100.00;100272.81;1754295;81;21015;-77
2023/01/04 01:06:31;;;;;;;5.85;2.37;;;;;;;1.65;100.00;100270.77;1755047;80;21106;-76
2023/01/04 01:08:59;;;;;;;5.72;2.65;;;;;;;1.69;100.00;100275.22;1724512;83;21541;-77
2023/01/04 01:11:26;;;;;;;5.03;2.40;;;;;;;1.66;100.00;100262.21;1749269;81;21051;-75
2023/01/04 01:13:53;;;;;;;5.92;2.72;;;;;;;1.62;100.00;100266.32;1739459;81;21094;-76
2023/01/04 01:16:21;;;;;;;5.20;2.22;;;;;;;1.58;100.00;100259.19;1753148;81;21042;-76
2023/01/04 01:18:48;;;;;;;6.00;2.80;;;;;;;1.61;100.00;100262.80;1754553;81;20951;-77
2023/01/04 01:21:19;;;;;;;7.12;2.70;;;;;;;1.62;100.00;100257.77;1760470;81;21067;-76
2023/01/04 01:23:47;;;;;;;5.87;2.47;;;;;;;1.61;100.00;100259.29;1755509;81;20980;-76
2023/01/04 01:26:16;;;;;;;4.15;2.17;;;;;;;1.62;100.00;100253.73;1758376;80;21090;-77
2023/01/04 01:28:44;;;;;;;3.20;1.50;;;;;;;1.70;100.00;100256.22;1761345;81;20987;-76
2023/01/04 01:31:17;;;;;;;5.22;2.17;;;;;;;1.79;100.00;100256.88;1754480;81;21078;-76
2023/01/04 01:33:45;;;;;;;3.00;1.70;;;;;;;1.80;100.00;100254.52;1757071;81;20952;-76
2023/01/04 01:36:13;;;;;;;3.47;1.75;;;;;;;1.79;100.00;100255.53;1755641;81;21011;-76
2023/01/04 01:38:40;;;;;;;3.65;1.90;;;;;;;1.75;100.00;100240.86;1741695;81;21019;-76
2023/01/04 01:41:07;;;;;;;5.40;1.85;;;;;;;1.87;100.00;100254.84;1743375;81;21077;-76
2023/01/04 01:43:54;;;;;;;2.87;2.08;;;;;;;1.91;100.00;100257.95;1745303;81;21042;-75
2023/01/04 01:46:43;;;;;;;4.42;2.45;;;;;;;1.87;100.00;100254.02;1744134;81;21035;-76
2023/01/04 01:49:31;;;;;;;4.92;2.20;;;;;;;1.84;100.00;100252.54;1746821;81;20951;-75
2023/01/04 01:52:01;;;;;;;5.22;2.00;;;;;;;1.90;100.00;100247.72;1751939;81;20988;-75
2023/01/04 01:54:32;;;;;;;4.05;2.10;;;;;;;1.89;100.00;100251.43;1753481;81;21871;-75
2023/01/04 01:57:00;;;;;;;4.22;2.15;;;;;;;1.85;100.00;100247.49;1736630;81;21011;-76
2023/01/04 01:59:28;;;;;;;4.72;2.10;;;;;;;1.83;100.00;100248.73;1740866;81;20980;-76
2023/01/04 02:01:55;;;;;;;4.45;2.00;;;;;;;1.86;100.00;100255.03;1747075;81;21541;-76
2023/01/04 02:04:22;;;;;;;5.37;2.00;;;;;;;1.91;100.00;100256.06;1752156;81;20975;-76
2023/01/04 02:06:51;;;;;;;4.28;1.95;;;;;;;1.91;100.00;100255.27;1742886;81;21607;-76
2023/01/04 02:09:21;;;;;;;4.28;1.67;;;;;;;1.89;100.00;100254.63;1732221;81;21889;-75
2023/01/04 02:11:49;;;;;;;4.83;2.20;;;;;;;1.88;100.00;100256.98;1752183;81;21043;-75
2023/01/04 02:14:26;;;;;;;3.95;1.70;;;;;;;1.92;100.00;100255.05;1745436;82;20971;-75
2023/01/04 02:17:25;;;;;;;4.00;1.90;;;;;;;1.94;100.00;100261.57;1743461;81;21494;-75
2023/01/04 02:20:20;;;;;;;3.83;2.10;;;;;;;1.91;100.00;100266.81;1739171;82;21035;-76
2023/01/04 02:23:24;;;;;;;3.47;2.00;;;;;;;1.89;100.00;100258.66;1738557;81;21438;-76
2023/01/04 02:26:06;;;;;;;4.90;2.27;;;;;;;1.94;100.00;100260.23;1744036;81;21553;-76
2023/01/04 02:29:09;;;;;;;5.33;2.40;;;;;;;1.89;100.00;100242.03;1744983;81;21106;-75
2023/01/04 02:31:40;;;;;;;3.52;1.95;;;;;;;1.80;100.00;100247.29;1744742;81;21098;-75
2023/01/04 02:34:45;;;;;;;4.78;1.80;;;;;;;1.78;100.00;100237.77;1728041;82;21036;-75
2023/01/04 02:37:40;;;;;;;4.67;2.05;;;;;;;1.80;100.00;100247.80;1750585;81;21036;-75
2023/01/04 02:40:20;;;;;;;4.00;2.22;;;;;;;1.75;100.00;100245.72;1744755;82;21522;-75
2023/01/04 02:46:05;;;;;;;6.95;2.98;;;;;;;1.68;100.00;100238.67;1754446;81;21126;-74
2023/01/04 02:51:34;;;;;;;8.83;3.30;;;;;;;1.60;100.00;100232.96;1753110;81;21066;-75
2023/01/04 02:54:07;;;;;;;7.80;3.40;;;;;;;1.55;100.00;100229.25;1751810;81;21439;-76
2023/01/04 02:56:45;;;;;;;5.90;2.85;;;;;;;1.57;100.00;100232.54;1718553;83;21054;-75
2023/01/04 02:59:37;;;;;;;4.87;2.58;;;;;;;1.59;100.00;100235.87;1739301;81;20997;-74
2023/01/04 03:09:03;;;;;;;4.30;2.60;;;;;;;1.60;100.00;100228.94;1679118;83;21000;-76
2023/01/04 03:14:44;;;;;;;4.62;2.75;;;;;;;1.55;100.00;100226.56;1703359;83;21046;-76
2023/01/04 03:17:12;;;;;;;5.15;2.60;;;;;;;1.59;100.00;100238.55;1707513;83;21056;-76
2023/01/04 03:19:55;;;;;;;5.00;2.87;;;;;;;1.60;100.00;100239.67;1713482;83;21181;-77
2023/01/04 03:37:01;;;;;;;4.97;2.33;;;;;;;1.41;100.00;100236.42;1753759;81;21100;-76
2023/01/04 03:49:20;;;;;;;6.78;2.60;;;;;;;1.36;100.00;100237.52;1764671;81;22144;-76
2023/01/04 03:51:47;;;;;;;4.25;2.83;;;;;;;1.41;100.00;100238.59;1754412;81;21090;-76
2023/01/04 03:54:28;;;;;;;4.75;2.70;;;;;;;1.39;100.00;100235.27;1756318;81;21031;-77
2023/01/04 03:56:55;;;;;;;4.17;2.40;;;;;;;1.42;100.00;100240.73;1752192;81;21522;-76
2023/01/04 03:59:23;;;;;;;4.65;2.45;;;;;;;1.50;100.00;100247.28;1757352;80;20982;-76
2023/01/04 04:01:50;;;;;;;7.08;3.05;;;;;;;1.54;100.00;100245.02;1754628;81;21039;-77
2023/01/04 04:09:49;;;;;;;7.83;3.45;;;;;;;1.53;100.00;100247.38;1724861;82;21062;-75
2023/01/04 04:12:17;;;;;;;5.60;3.25;;;;;;;1.58;100.00;100241.74;1736545;81;21050;-76
2023/01/04 04:14:44;;;;;;;8.20;3.95;;;;;;;1.57;100.00;100248.13;1753642;80;21455;-75
2023/01/04 04:17:12;;;;;;;6.95;3.17;;;;;;;1.55;100.00;100248.03;1751108;81;21066;-77
2023/01/04 04:19:39;;;;;;;6.67;2.90;;;;;;;1.54;100.00;100251.73;1760482;80;21023;-76
2023/01/04 04:22:06;;;;;;;4.85;2.58;;;;;;;1.60;100.00;100250.41;1754271;82;21019;-75
2023/01/04 04:24:35;;;;;;;5.95;3.27;;;;;;;1.63;100.00;100250.00;1754281;81;21501;-76
2023/01/04 04:27:02;;;;;;;6.50;3.00;;;;;;;1.61;100.00;100256.61;1755773;81;21573;-77
2023/01/04 04:29:29;;;;;;;5.03;2.70;;;;;;;1.60;100.00;100254.94;1760690;81;20968;-76
2023/01/04 04:31:56;;;;;;;5.00;2.70;;;;;;;1.63;100.00;100247.86;1751973;82;21036;-77
2023/01/04 04:34:23;;;;;;;4.40;2.75;;;;;;;1.67;100.00;100249.91;1739064;80;20987;-76
2023/01/04 04:36:50;;;;;;;5.12;2.87;;;;;;;1.67;100.00;100247.74;1756652;81;21448;-77
2023/01/04 04:39:18;;;;;;;5.10;2.90;;;;;;;1.61;100.00;100250.73;1749591;81;21389;-77
2023/01/04 04:41:45;;;;;;;4.55;2.25;;;;;;;1.59;100.00;100242.58;1758606;81;21046;-76
2023/01/04 04:44:18;;;;;;;5.30;3.00;;;;;;;1.63;100.00;100256.70;1751722;81;21408;-77
2023/01/04 04:46:46;;;;;;;4.75;2.95;;;;;;;1.64;100.00;100262.40;1737675;81;21142;-77
2023/01/04 04:52:00;;;;;;;6.50;3.00;;;;;;;1.62;100.00;100249.71;1854716;76;23134;-77
2023/01/04 04:54:27;;;;;;;6.75;3.50;;;;;;;1.60;100.00;100257.63;1823472;77;21658;-76
2023/01/04 04:56:54;;;;;;;6.92;4.42;;;;;;;1.68;100.00;100262.83;1816338;77;21567;-77
2023/01/04 04:59:21;;;;;;;6.20;3.58;;;;;;;1.67;100.00;100259.81;1811367;77;20994;-76
2023/01/04 05:01:49;;;;;;;7.03;3.67;;;;;;;1.65;100.00;100259.20;1816770;77;21042;-77
2023/01/04 05:04:18;;;;;;;7.28;3.42;;;;;;;1.68;100.00;100257.45;1826160;78;21053;-76
2023/01/04 05:06:46;;;;;;;6.83;3.65;;;;;;;1.72;100.00;100250.66;1814979;77;21100;-75
2023/01/04 05:09:14;;;;;;;8.23;4.12;;;;;;;1.73;100.00;100251.81;1795989;77;21584;-76
2023/01/04 05:14:28;;;;;;;7.83;3.75;;;;;;;1.67;100.00;100261.16;1811354;77;21003;-76
2023/01/04 05:16:55;;;;;;;8.73;3.83;;;;;;;1.70;100.00;100264.27;1806796;77;21615;-76
2023/01/04 05:19:24;;;;;;;7.80;3.98;;;;;;;1.72;100.00;100262.23;1824692;77;21334;-76
2023/01/04 05:21:51;;;;;;;8.83;4.12;;;;;;;1.73;100.00;100263.06;1814954;77;21069;-77
2023/01/04 05:24:18;;;;;;;6.75;4.17;;;;;;;1.69;100.00;100267.17;1852300;77;21447;-76
2023/01/04 05:26:45;;;;;;;6.97;4.10;;;;;;;1.66;100.00;100261.70;1827452;77;21018;-77
2023/01/04 05:30:49;;;;;;;8.00;3.77;;;;;;;1.71;100.00;100259.73;1819029;77;20947;-76
2023/01/04 05:31:41;;;;;;;9.03;4.17;;;;;;;1.77;100.00;100262.97;1805927;77;21683;-76
2023/01/04 05:34:08;;;;;;;6.85;4.03;;;;;;;1.79;100.00;100264.93;1831803;77;21014;-76
2023/01/04 05:36:36;;;;;;;6.60;3.65;;;;;;;1.75;100.00;100264.50;1812775;77;21049;-76
2023/01/04 05:39:03;;;;;;;9.93;4.47;;;;;;;1.75;100.00;100267.70;1831071;77;20998;-79
2023/01/04 05:44:16;;;;;;;10.03;5.30;;;;;;;1.85;100.00;100266.28;1825700;77;20986;-78
2023/01/04 05:46:43;;;;;;;9.43;5.10;;;;;;;1.88;100.00;100267.73;1798748;77;21619;-76
2023/01/04 05:49:10;;;;;;;9.50;4.78;;;;;;;1.86;100.00;100263.09;1827313;77;21575;-77
2023/01/04 05:51:37;;;;;;;7.37;3.75;;;;;;;1.84;100.00;100260.59;1816912;77;21055;-77
2023/01/04 05:54:04;;;;;;;6.37;3.00;;;;;;;1.89;100.00;100264.85;1816926;79;21078;-77
2023/01/04 05:56:31;;;;;;;8.65;3.62;;;;;;;1.95;100.00;100267.23;1816777;79;21063;-77
2023/01/04 05:58:58;;;;;;;5.83;3.67;;;;;;;1.98;100.00;100277.05;1816813;79;21526;-77
2023/01/04 06:01:25;;;;;;;6.53;3.30;;;;;;;1.95;100.00;100268.06;1816697;77;21869;-77
2023/01/04 06:03:52;;;;;;;8.55;3.40;;;;;;;1.94;100.00;100268.28;1816240;79;21526;-77
2023/01/04 06:06:20;;;;;;;7.17;3.25;;;;;;;1.99;100.00;100277.87;1814568;77;21651;-77
2023/01/04 06:08:48;;;;;;;5.72;3.45;;;;;;;2.05;100.00;100277.59;1814261;79;21570;-77
2023/01/04 06:11:15;;;;;;;7.50;3.60;;;;;;;2.07;100.00;100280.90;1808106;79;21047;-77
2023/01/04 06:13:42;;;;;;;5.67;3.65;;;;;;;2.04;100.00;100278.63;1818124;79;21035;-76
2023/01/04 06:16:10;;;;;;;8.93;3.98;;;;;;;2.04;100.00;100289.36;1815728;77;21118;-77
2023/01/04 06:18:39;;;;;;;7.05;3.50;;;;;;;2.10;100.00;100289.88;1824363;78;20951;-77
2023/01/04 06:21:06;;;;;;;9.10;4.28;;;;;;;2.17;100.00;100292.07;1830129;77;21108;-76
2023/01/04 06:23:33;;;;;;;10.08;5.00;;;;;;;2.18;100.00;100287.84;1821746;77;20999;-76
2023/01/04 06:26:00;;;;;;;11.03;6.30;;;;;;;2.18;100.00;100294.56;1812747;79;21094;-76
2023/01/04 06:28:28;;;;;;;11.43;7.08;;;;;;;2.20;100.00;100296.52;1818180;79;21000;-76
2023/01/04 06:30:55;;;;;;;12.78;7.97;;;;;;;2.27;100.00;100301.39;1788256;78;21520;-75
2023/01/04 06:33:23;;;;;;;13.68;9.68;;;;;;;2.33;100.00;100305.97;1822443;77;21043;-76
2023/01/04 06:35:56;;;;;;;15.98;9.78;;;;;;;2.34;100.00;100316.17;1829315;77;21051;-77
2023/01/04 06:38:23;;;;;;;13.35;9.18;;;;;;;2.34;100.00;100309.45;1805726;79;21643;-77
2023/01/04 06:40:50;;;;;;;10.58;7.22;;;;;;;2.32;100.00;100306.98;1825054;76;21700;-77
2023/01/04 06:43:17;;;;;;;8.90;5.10;;;;;;;2.37;100.00;100303.70;1818093;77;21483;-77
2023/01/04 06:45:44;;;;;;;7.33;4.90;;;;;;;2.43;100.00;100308.23;1796346;77;22315;-77
2023/01/04 06:48:13;;;;;;;7.55;4.95;;;;;;;2.45;100.00;100308.84;1815940;78;21043;-79
2023/01/04 06:50:41;;;;;;;8.55;5.00;;;;;;;2.41;100.00;100309.77;1808912;77;21608;-77
2023/01/04 06:53:08;;;;;;;9.33;4.65;;;;;;;2.39;100.00;100300.27;1799565;77;21571;-76
2023/01/04 06:55:35;;;;;;;9.70;4.62;;;;;;;2.44;100.00;100301.84;1822597;77;21648;-76
2023/01/04 06:58:02;;;;;;;7.58;3.77;;;;;;;2.51;100.00;100316.91;1829599;77;20978;-77
2023/01/04 07:00:30;;;;;;;7.22;4.15;;;;;;;2.55;100.00;100306.58;1827556;78;21054;-77
2023/01/04 07:02:57;;;;;;;7.17;4.00;;;;;;;2.54;100.00;100308.14;1826707;77;20989;-78
2023/01/04 07:05:25;;;;;;;5.60;3.62;;;;;;;2.53;100.00;100308.66;1825450;78;21136;-77
2023/01/04 07:07:53;;;;;;;7.12;3.65;;;;;;;2.57;100.00;100312.59;1824473;78;21028;-77
2023/01/04 07:10:20;;;;;;;7.53;4.28;;;;;;;2.64;100.00;100308.05;1814761;77;21053;-77
2023/01/04 07:12:47;;;;;;;7.47;4.30;;;;;;;2.70;100.00;100311.76;1819065;78;21026;-77
2023/01/04 07:15:14;;;;;;;7.70;5.35;;;;;;;2.70;100.00;100310.41;1824441;78;21097;-77
2023/01/04 07:17:41;;;;;;;7.67;4.62;;;;;;;2.69;100.00;100310.12;1824375;77;21021;-77
2023/01/04 07:20:10;;;;;;;7.90;4.53;;;;;;;2.72;100.00;100310.54;1825735;77;21029;-76
2023/01/04 07:22:39;;;;;;;7.55;3.83;;;;;;;2.79;100.00;100318.09;1828176;78;20977;-77
2023/01/04 07:25:07;;;;;;;7.08;4.33;;;;;;;2.82;100.00;100308.77;1826382;77;21073;-77
2023/01/04 07:30:35;;;;;;;7.42;4.05;;;;;;;2.80;100.00;100324.30;1754741;80;21065;-73
2023/01/04 07:33:02;;;;;;;7.60;4.20;;;;;;;2.83;100.00;100324.70;1788772;80;21039;-77
2023/01/04 07:35:29;;;;;;;6.90;4.28;;;;;;;2.88;100.00;100323.55;1733300;81;21441;-77
2023/01/04 07:37:56;;;;;;;7.33;3.98;;;;;;;2.91;100.00;100324.47;1761050;80;21038;-78
2023/01/04 07:40:24;;;;;;;6.72;3.67;;;;;;;2.90;100.00;100320.16;1788527;79;21033;-77
2023/01/04 07:42:56;;;;;;;6.55;3.52;;;;;;;2.90;100.00;100328.22;1792914;80;21379;-77
2023/01/04 07:45:23;;;;;;;6.20;3.58;;;;;;;2.95;100.00;100328.92;1793788;78;21006;-78
2023/01/04 07:47:50;;;;;;;9.43;3.77;;;;;;;3.01;100.00;100328.91;1794158;80;21037;-76
2023/01/04 07:50:18;;;;;;;7.85;3.40;;;;;;;3.07;100.00;100333.99;1783368;79;21021;-76
2023/01/04 07:52:46;;;;;;;7.22;3.60;;;;;;;3.07;100.00;100335.85;1769725;81;21037;-77
2023/01/04 07:55:14;;;;;;;6.58;3.42;;;;;;;3.05;100.00;100334.70;1767693;79;21187;-77
2023/01/04 07:57:41;;;;;;;7.58;3.17;;;;;;;3.09;100.00;100343.18;1785802;80;21368;-77
2023/01/04 08:00:10;;;;;;;8.28;4.50;;;;;;;3.15;100.00;100332.44;1787691;79;21007;-77
2023/01/04 08:02:40;;;;;;;7.30;3.83;;;;;;;3.18;100.00;100337.91;1789590;80;21189;-76
2023/01/04 08:05:08;;;;;;;10.28;3.25;;;;;;;3.17;100.00;100344.32;1784976;79;21020;-75
2023/01/04 08:07:36;;;;;;;5.72;2.83;;;;;;;3.16;100.00;100347.52;1778735;80;21008;-76
2023/01/04 08:10:04;;;;;;;6.03;2.98;;;;;;;3.22;100.00;100349.41;1783393;80;21079;-76
2023/01/04 08:12:31;;;;;;;8.10;3.80;;;;;;;3.23;100.00;100351.55;1776722;80;21365;-75
2023/01/04 08:15:00;;;;;;;5.60;3.80;;;;;;;3.21;100.00;100347.73;1784869;80;21032;-76
2023/01/04 08:17:27;;;;;;;6.50;3.50;;;;;;;3.20;100.00;100350.11;1785872;80;21414;-74
2023/01/04 08:19:54;;;;;;;6.58;4.17;;;;;;;3.17;100.00;100339.77;1786737;80;21082;-74
2023/01/04 08:22:22;;;;;;;6.50;4.30;;;;;;;3.30;100.00;100349.67;1786794;80;21063;-75
2023/01/04 08:24:50;;;;;;;6.85;3.12;;;;;;;3.29;100.00;100344.84;1786706;80;21126;-74
2023/01/04 08:27:17;;;;;;;7.53;3.77;;;;;;;3.31;100.00;100350.82;1786862;80;21036;-75
2023/01/04 08:29:44;;;;;;;7.85;3.77;;;;;;;3.38;100.00;100352.98;1786747;80;21495;-74
2023/01/04 08:32:11;;;;;;;6.62;3.87;;;;;;;3.43;100.00;100340.25;1786074;80;21578;-75
2023/01/04 08:34:38;;;;;;;8.13;3.70;;;;;;;3.43;100.00;100341.59;1786483;80;21415;-75
2023/01/04 08:37:05;;;;;;;5.62;3.17;;;;;;;3.42;100.00;100342.11;1786124;80;21361;-75
2023/01/04 08:39:34;;;;;;;5.87;2.67;;;;;;;3.50;100.00;100345.09;1786580;80;21067;-74
2023/01/04 08:42:02;;;;;;;5.97;3.70;;;;;;;3.58;100.00;100340.80;1786266;80;21101;-75
2023/01/04 08:44:29;;;;;;;7.70;4.35;;;;;;;3.58;100.00;100338.11;1788033;80;21004;-74
2023/01/04 08:46:57;;;;;;;7.75;3.85;;;;;;;3.58;100.00;100339.46;1787805;80;21115;-75
2023/01/04 08:49:25;;;;;;;5.80;3.20;;;;;;;3.62;100.00;100339.34;1788057;80;20976;-75
2023/01/04 08:51:52;;;;;;;8.03;3.83;;;;;;;3.68;100.00;100341.73;1787565;80;21052;-75
2023/01/04 08:54:21;;;;;;;9.63;4.58;;;;;;;3.69;100.00;100340.67;1787402;80;21032;-75
2023/01/04 08:56:50;;;;;;;6.30;3.80;;;;;;;3.68;100.00;100339.87;1787242;80;21626;-75
2023/01/04 08:59:18;;;;;;;5.87;3.37;;;;;;;3.68;100.00;100346.59;1787623;80;21035;-75
2023/01/04 09:01:45;;;;;;;7.92;3.30;;;;;;;3.71;100.00;100347.52;1787321;80;21121;-75
2023/01/04 09:04:12;;;;;;;6.35;3.35;;;;;;;3.78;100.00;100346.97;1786981;80;21051;-75
2023/01/04 09:06:40;;;;;;;8.00;3.90;;;;;;;3.77;100.00;100337.23;1786148;80;21107;-75
2023/01/04 09:09:07;;;;;;;8.25;4.20;;;;;;;3.76;100.00;100344.16;1786171;80;21574;-75
2023/01/04 09:11:37;;;;;;;8.00;3.45;;;;;;;3.77;100.00;100343.97;1786045;80;21123;-74
2023/01/04 09:14:07;;;;;;;7.03;3.40;;;;;;;3.84;100.00;100339.89;1758554;80;21032;-75
2023/01/04 09:16:33;;;;;;;7.30;3.25;;;;;;;3.85;100.00;100342.91;1786285;80;21095;-75
2023/01/04 09:19:01;;;;;;;6.05;2.72;;;;;;;3.82;100.00;100340.12;1786463;80;21095;-75
2023/01/04 09:21:28;;;;;;;6.20;2.90;;;;;;;3.82;100.00;100344.17;1786311;80;21720;-74
2023/01/04 09:23:57;;;;;;;7.65;3.05;;;;;;;3.85;100.00;100337.00;1786606;80;21559;-75
2023/01/04 09:26:24;;;;;;;7.45;3.95;;;;;;;3.91;100.00;100332.61;1744982;80;21095;-75
2023/01/04 09:28:53;;;;;;;5.58;2.90;;;;;;;3.89;100.00;100336.05;1786244;80;21060;-75
2023/01/04 09:31:23;;;;;;;4.75;2.40;;;;;;;3.87;100.00;100338.12;1786076;80;21138;-75
2023/01/04 09:33:51;;;;;;;4.45;2.37;;;;;;;3.91;100.00;100342.04;1785496;80;21051;-74
2023/01/04 09:36:18;;;;;;;5.03;2.60;;;;;;;3.95;100.00;100333.33;1786125;80;21091;-75
2023/01/04 09:38:45;;;;;;;5.92;3.20;;;;;;;3.96;100.00;100321.52;1785920;80;21369;-75
2023/01/04 09:41:21;;;;;;;5.85;2.80;;;;;;;3.97;100.00;100319.63;1757840;80;21139;-75
2023/01/04 09:43:55;;;;;;;6.25;2.58;;;;;;;3.99;100.00;100315.70;1786026;80;21516;-75
2023/01/04 09:46:33;;;;;;;4.80;2.37;;;;;;;4.01;100.00;100307.38;1787746;80;21020;-75
2023/01/04 09:49:15;;;;;;;6.20;2.40;;;;;;;4.07;100.00;100304.37;1787829;80;20989;-75
2023/01/04 09:51:46;;;;;;;3.65;2.42;;;;;;;4.04;100.00;100300.77;1780289;80;21482;-75
2023/01/04 09:54:17;;;;;;;4.90;2.37;;;;;;;3.99;100.00;100301.40;1762221;81;21034;-75
2023/01/04 09:56:50;;;;;;;7.78;2.87;;;;;;;3.97;100.00;100299.42;1730371;81;21089;-75
2023/01/04 09:59:22;;;;;;;4.33;2.67;;;;;;;4.04;100.00;100296.72;1736514;81;20995;-75
2023/01/04 10:01:55;;;;;;;6.72;2.50;;;;;;;4.11;100.00;100293.47;1730361;81;21062;-74
2023/01/04 10:04:43;;;;;;;5.70;2.70;;;;;;;4.08;100.00;100286.62;1761389;81;21568;-75
2023/01/04 10:07:24;;;;;;;5.50;3.10;;;;;;;4.05;100.00;100290.27;1729363;81;21683;-75
2023/01/04 10:09:52;;;;;;;6.83;2.47;;;;;;;4.04;100.00;100288.09;1760815;81;21109;-74
2023/01/04 10:12:52;;;;;;;4.90;2.35;;;;;;;4.09;100.00;100288.28;1729236;83;21074;-75
2023/01/04 10:15:31;;;;;;;4.92;2.50;;;;;;;4.14;100.00;100290.34;1729025;81;21050;-75
2023/01/04 10:18:21;;;;;;;6.75;2.95;;;;;;;4.09;100.00;100287.45;1760567;81;21049;-74
2023/01/04 10:21:09;;;;;;;5.20;2.33;;;;;;;4.05;100.00;100287.06;1728592;81;21130;-75
2023/01/04 10:24:03;;;;;;;4.83;2.30;;;;;;;4.09;100.00;100281.55;1729019;83;21082;-74
2023/01/04 10:26:46;;;;;;;7.08;2.52;;;;;;;4.12;100.00;100284.32;1760478;81;21648;-74
2023/01/04 10:29:54;;;;;;;5.65;2.87;;;;;;;4.05;100.00;100280.32;1728982;83;21068;-74
2023/01/04 10:32:38;;;;;;;4.90;2.12;;;;;;;4.03;100.00;100281.07;1669400;86;21707;-75
2023/01/04 10:35:20;;;;;;;6.25;2.15;;;;;;;4.01;100.00;100283.14;1749956;81;21034;-75
2023/01/04 10:37:51;;;;;;;5.15;2.50;;;;;;;4.11;100.00;100288.08;1728670;83;21145;-75
2023/01/04 10:40:18;;;;;;;5.00;2.20;;;;;;;4.08;100.00;100281.23;1759375;81;21153;-75
2023/01/04 10:43:06;;;;;;;4.35;2.05;;;;;;;4.09;100.00;100292.84;1728563;83;21081;-75
2023/01/04 10:45:54;;;;;;;5.97;2.10;;;;;;;4.08;100.00;100290.66;1760228;81;21164;-75
2023/01/04 10:48:42;;;;;;;5.95;2.27;;;;;;;4.13;100.00;100287.33;1737627;81;21076;-75
2023/01/04 10:51:09;;;;;;;5.35;2.10;;;;;;;4.15;100.00;100287.41;1728597;81;21102;-75
2023/01/04 10:54:06;;;;;;;4.80;1.77;;;;;;;4.13;100.00;100284.12;1766779;80;21105;-76
2023/01/04 10:56:38;;;;;;;5.37;1.92;;;;;;;4.08;100.00;100290.66;1774063;79;21047;-74
2023/01/04 10:59:28;;;;;;;5.78;2.50;;;;;;;4.11;100.00;100283.48;1775582;81;21018;-75
2023/01/04 11:02:16;;;;;;;6.55;2.77;;;;;;;4.10;100.00;100298.03;1775698;79;21050;-76
2023/01/04 11:05:00;;;;;;;7.00;3.60;;;;;;;4.01;100.00;100292.05;1776177;81;21845;-75
2023/01/04 11:07:42;;;;;;;6.45;3.65;;;;;;;4.00;100.00;100302.52;1775564;81;21066;-75
2023/01/04 11:10:30;;;;;;;7.85;4.45;;;;;;;3.96;100.00;100301.83;1775410;79;21027;-74
2023/01/04 11:12:57;;;;;;;8.60;3.58;;;;;;;3.91;100.00;100303.81;1775581;80;21596;-75
2023/01/04 11:15:24;;;;;;;7.25;3.60;;;;;;;3.97;100.00;100308.34;1735668;81;21530;-74
2023/01/04 11:17:51;;;;;;;7.03;3.47;;;;;;;3.96;100.00;100304.02;1775635;81;21632;-76
2023/01/04 11:20:19;;;;;;;8.20;3.75;;;;;;;3.93;100.00;100313.04;1735623;81;21057;-76
2023/01/04 11:22:56;;;;;;;11.15;5.55;;;;;;;3.95;100.00;100313.12;1775813;81;22232;-75
2023/01/04 11:25:24;;;;;;;10.78;5.12;;;;;;;3.95;100.00;100319.86;1775331;79;21054;-77
2023/01/04 11:27:59;;;;;;;10.28;4.62;;;;;;;3.92;100.00;100316.25;1775392;80;21093;-74
2023/01/04 11:30:43;;;;;;;5.60;2.85;;;;;;;3.85;100.00;100314.11;1775515;79;21102;-74
2023/01/04 11:33:15;;;;;;;6.30;3.00;;;;;;;3.85;100.00;100318.15;1728873;81;21089;-74
2023/01/04 11:35:44;;;;;;;6.62;3.50;;;;;;;3.87;100.00;100321.95;1735358;81;21153;-74
2023/01/04 11:38:18;;;;;;;6.08;3.42;;;;;;;3.85;100.00;100313.28;1777385;81;21059;-74
2023/01/04 11:41:06;;;;;;;5.10;2.95;;;;;;;3.85;100.00;100317.31;1736819;81;21121;-74
2023/01/04 11:43:35;;;;;;;;;;;;;;;3.82;100.00;100312.36;1779887;81;21062;-74
2023/01/04 11:46:09;;;;;;;5.08;2.60;;;;;;;3.83;100.00;100312.13;1776789;79;20104;-74
2023/01/04 11:48:41;;;;;;;4.58;2.83;;;;;;;3.82;100.00;100306.98;1732901;82;21053;-74
2023/01/04 11:51:32;;;;;;;4.55;2.60;;;;;;;3.84;100.00;100305.72;1776975;79;21031;-72
2023/01/04 14:31:05;;;;;;;20.55;9.28;;;;;;;1.17;100.00;100287.34;1789246;79;23597;-66
2023/01/04 14:33:39;;;;;;;26.17;13.85;;;;;;;1.16;100.00;100283.55;1751949;82;21027;-66
2023/01/04 14:36:14;;;;;;;26.35;12.90;;;;;;;1.27;100.00;100289.70;1751906;82;21413;-66
2023/01/04 14:38:54;;;;;;;18.17;10.23;;;;;;;1.35;100.00;100286.31;1752084;82;21334;-67
2023/01/04 14:41:38;;;;;;;19.20;9.70;;;;;;;1.42;100.00;100292.54;1752123;82;21051;-67
2023/01/04 14:44:14;;;;;;;19.75;11.12;;;;;;;1.45;100.00;100278.72;1752073;82;21479;-67
2023/01/04 14:46:45;;;;;;;20.68;12.73;;;;;;;1.43;100.00;100277.28;1752059;82;21035;-66
2023/01/04 14:49:12;;;;;;;22.45;12.88;;;;;;;1.41;100.00;100274.81;1752116;82;21019;-66
2023/01/04 14:51:45;;;;;;;17.90;9.83;;;;;;;1.42;100.00;100272.93;1752042;82;21003;-66
2023/01/04 14:54:12;;;;;;;17.23;10.63;;;;;;;1.46;100.00;100258.09;1750815;82;21615;-66
2023/01/04 14:56:39;;;;;;;16.70;10.10;;;;;;;1.49;100.00;100258.52;1751140;82;21067;-67
2023/01/04 14:59:06;;;;;;;17.70;11.33;;;;;;;1.49;100.00;100265.23;1737739;82;21062;-66
2023/01/04 15:01:35;;;;;;;18.57;11.57;;;;;;;1.45;100.00;100261.28;1731487;82;21050;-67
2023/01/04 15:04:03;;;;;;;20.10;12.13;;;;;;;1.42;100.00;100253.64;1742804;82;21034;-67
2023/01/04 15:06:31;;;;;;;25.88;15.10;;;;;;;1.38;100.00;100262.31;1733649;82;21588;-67
2023/01/04 15:08:58;;;;;;;31.52;17.85;;;;;;;1.38;100.00;100269.02;1726482;82;21503;-67
2023/01/04 15:11:27;;;;;;;38.92;21.35;;;;;;;1.36;100.00;100262.50;1739701;82;22245;-68
2023/01/04 15:13:54;;;;;;;46.28;25.05;;;;;;;1.32;100.00;100261.23;1727985;82;21050;-66
2023/01/04 15:16:22;;;;;;;38.60;20.12;;;;;;;1.26;100.00;100268.75;1710143;82;21593;-67
2023/01/04 15:18:49;;;;;;;33.58;18.98;;;;;;;1.19;100.00;100265.20;1750179;82;21026;-68